createdAt,value
2022-11-16T00:00:05.791Z,100218.19
2022-11-16T00:02:55.237Z,100207.84
2022-11-16T00:05:28.129Z,100201.56
2022-11-16T00:07:58.558Z,100192.75
2022-11-16T00:10:26.929Z,100191.94
2022-11-16T00:12:56.677Z,100192.75
2022-11-16T00:15:25.068Z,100180.84
2022-11-16T00:17:53.670Z,100191.06
2022-11-16T00:20:21.938Z,100183.25
2022-11-16T00:22:50.629Z,100179.91
2022-11-16T00:25:18.897Z,100179.75
2022-11-16T00:27:47.549Z,100172.91
2022-11-16T00:30:16.447Z,100167.59
2022-11-16T00:32:46.236Z,100170.38
2022-11-16T00:35:14.666Z,100155.31
2022-11-16T00:37:43.366Z,100159.75
2022-11-16T00:40:12.686Z,100164.47
2022-11-16T00:42:41.377Z,100152.31
2022-11-16T00:45:10.556Z,100153.88
2022-11-16T00:47:39.855Z,100144.97
2022-11-16T00:50:09.998Z,100150.38
2022-11-16T00:52:38.806Z,100143.25
2022-11-16T00:55:08.096Z,100146.19
2022-11-16T00:57:38.235Z,100144.25
2022-11-16T01:00:08.577Z,100139.91
2022-11-16T01:02:38.857Z,100132.34
2022-11-16T01:05:09.735Z,100127.16
2022-11-16T01:07:39.587Z,100138.25
2022-11-16T01:10:13.696Z,100113.31
2022-11-16T01:12:46.816Z,100120.63
2022-11-16T01:15:17.596Z,100112.97
2022-11-16T01:17:46.436Z,100117.28
2022-11-16T01:20:18.655Z,100117.56
2022-11-16T01:22:48.486Z,100105.25
2022-11-16T01:25:16.937Z,100104.28
2022-11-16T01:27:46.315Z,100109.44
2022-11-16T01:30:21.963Z,100101.66
2022-11-16T01:33:09.796Z,100098.13
2022-11-16T01:35:38.226Z,100096.19
2022-11-16T01:38:07.356Z,100083.59
2022-11-16T01:40:37.927Z,100081.78
2022-11-16T01:43:20.616Z,100077.06
2022-11-16T01:45:49.836Z,100076.09
2022-11-16T01:48:29.655Z,100075.66
2022-11-16T01:50:58.446Z,100075.50
2022-11-16T01:53:28.577Z,100064.47
2022-11-16T01:55:59.058Z,100066.47
2022-11-16T01:58:47.972Z,100064.06
2022-11-16T02:01:22.970Z,100057.09
2022-11-16T02:03:57.866Z,100066.84
2022-11-16T02:06:26.925Z,100057.22
2022-11-16T02:09:53.757Z,100052.03
2022-11-16T02:12:50.935Z,100044.09
2022-11-16T02:15:45.436Z,100040.72
2022-11-16T02:19:19.076Z,100033.63
2022-11-16T02:22:19.755Z,100030.25
2022-11-16T02:25:06.964Z,100030.25
2022-11-16T02:28:00.745Z,100016.28
2022-11-16T02:30:29.835Z,100000.78
2022-11-16T02:33:04.752Z,100001.50
2022-11-16T02:35:44.453Z,99996.22
2022-11-16T02:38:19.342Z,99992.69
2022-11-16T02:40:51.600Z,99979.84
2022-11-16T02:43:36.732Z,99988.25
2022-11-16T02:46:09.675Z,99983.19
2022-11-16T02:48:42.596Z,99985.72
2022-11-16T02:51:11.027Z,99976.50
2022-11-16T02:54:13.180Z,99978.03
2022-11-16T02:56:56.072Z,99983.19
2022-11-16T02:59:43.750Z,99977.06
2022-11-16T03:02:56.392Z,99977.19
2022-11-16T03:05:33.954Z,99976.25
2022-11-16T03:08:32.059Z,99966.72
2022-11-16T03:11:26.464Z,99968.28
2022-11-16T03:14:06.910Z,99957.94
2022-11-16T03:16:44.284Z,99952.06
2022-11-16T03:19:24.201Z,99959.63
2022-11-16T03:22:01.891Z,99962.28
2022-11-16T03:24:32.251Z,99957.09
2022-11-16T03:27:54.401Z,99947.47
2022-11-16T03:30:28.292Z,99943.03
2022-11-16T03:33:14.652Z,99933.38
2022-11-16T03:35:51.602Z,99930.84
2022-11-16T03:38:20.871Z,99924.72
2022-11-16T03:40:50.230Z,99927.38
2022-11-16T03:43:20.881Z,99928.22
2022-11-16T03:45:49.991Z,99927.38
2022-11-16T03:48:18.593Z,99928.22
2022-11-16T03:50:47.011Z,99920.38
2022-11-16T03:53:16.553Z,99921.25
2022-11-16T03:55:49.656Z,99920.38
2022-11-16T03:58:18.984Z,99920.38
2022-11-16T04:00:48.010Z,99918.72
2022-11-16T04:03:16.744Z,99906.72
2022-11-16T04:06:03.877Z,99920.53
2022-11-16T04:08:51.170Z,99919.69
2022-11-16T04:11:39.841Z,99923.19
2022-11-16T04:14:40.610Z,99922.31
2022-11-16T04:17:35.715Z,99931.25
2022-11-16T04:20:24.601Z,99914.06
2022-11-16T04:23:37.944Z,99927.63
2022-11-16T04:26:08.590Z,99919.97
2022-11-16T04:28:38.322Z,99908.91
2022-11-16T04:31:27.651Z,99912.97
2022-11-16T04:34:33.893Z,99901.66
2022-11-16T04:37:22.320Z,99890.69
2022-11-16T04:39:50.681Z,99881.88
2022-11-16T04:42:22.648Z,99872.69
2022-11-16T04:45:11.970Z,99874.25
2022-11-16T04:47:53.792Z,99863.53
2022-11-16T04:50:26.572Z,99869.84
2022-11-16T04:52:56.143Z,99872.81
2022-11-16T04:55:25.211Z,99858.16
2022-11-16T04:57:55.134Z,99860.72
2022-11-16T05:00:24.632Z,99849.97
2022-11-16T05:02:59.736Z,99857.25
2022-11-16T05:05:30.497Z,99867.78
2022-11-16T05:08:00.865Z,99852.72
2022-11-16T05:10:32.294Z,99853.41
2022-11-16T05:13:02.492Z,99859.53
2022-11-16T05:15:30.924Z,99855.38
2022-11-16T05:18:01.343Z,99846.16
2022-11-16T05:20:49.522Z,99860.69
2022-11-16T05:23:51.722Z,99855.75
2022-11-16T05:26:23.084Z,99851.72
2022-11-16T05:28:52.932Z,99845.31
2022-11-16T05:31:22.132Z,99848.53
2022-11-16T05:33:51.024Z,99857.31
2022-11-16T05:36:20.788Z,99866.38
2022-11-16T05:38:55.196Z,99859.69
2022-11-16T05:41:26.993Z,99861.50
2022-11-16T05:43:56.388Z,99859.16
2022-11-16T05:46:24.913Z,99857.88
2022-11-16T05:48:55.882Z,99862.75
2022-11-16T05:51:25.643Z,99862.06
2022-11-16T05:53:57.135Z,99872.81
2022-11-16T05:56:27.115Z,99858.41
2022-11-16T05:58:56.954Z,99855.38
2022-11-16T06:01:25.918Z,99844.63
2022-11-16T06:03:55.341Z,99858.72
2022-11-16T06:06:23.646Z,99859.84
2022-11-16T06:08:53.720Z,99853.97
2022-11-16T06:11:29.076Z,99856.75
2022-11-16T06:14:02.044Z,99841.41
2022-11-16T06:16:30.452Z,99843.22
2022-11-16T06:19:01.043Z,99840.72
2022-11-16T06:21:30.063Z,99832.06
2022-11-16T06:24:00.193Z,99828.00
2022-11-16T06:26:28.532Z,99829.97
2022-11-16T06:28:57.276Z,99819.75
2022-11-16T06:31:25.791Z,99831.06
2022-11-16T06:33:56.265Z,99829.41
2022-11-16T06:36:28.184Z,99820.19
2022-11-16T06:39:02.243Z,99819.75
2022-11-16T06:41:37.596Z,99809.00
2022-11-16T06:44:10.594Z,99807.16
2022-11-16T06:46:44.632Z,99798.25
2022-11-16T06:49:14.042Z,99808.44
2022-11-16T06:51:42.424Z,99805.78
2022-11-16T06:54:11.113Z,99800.03
2022-11-16T06:56:39.485Z,99816.53
2022-11-16T06:59:11.076Z,99809.69
2022-11-16T07:01:40.094Z,99799.78
2022-11-16T07:04:14.542Z,99786.78
2022-11-16T07:06:48.789Z,99784.44
2022-11-16T07:09:19.124Z,99775.91
2022-11-16T07:11:48.483Z,99773.25
2022-11-16T07:14:19.556Z,99773.38
2022-11-16T07:16:48.793Z,99769.91
2022-11-16T07:19:17.447Z,99763.91
2022-11-16T07:21:46.222Z,99761.25
2022-11-16T07:24:19.143Z,99757.06
2022-11-16T07:26:48.643Z,99756.22
2022-11-16T07:29:23.322Z,99762.50
2022-11-16T07:32:12.982Z,99746.88
2022-11-16T07:34:59.435Z,99738.91
2022-11-16T07:37:29.416Z,99731.09
2022-11-16T07:39:58.005Z,99718.25
2022-11-16T07:42:27.192Z,99726.06
2022-11-16T07:45:10.215Z,99725.25
2022-11-16T07:47:43.352Z,99723.56
2022-11-16T07:50:20.776Z,99727.19
2022-11-16T07:52:49.324Z,99729.16
2022-11-16T07:55:21.903Z,99714.63
2022-11-16T07:57:53.677Z,99733.31
2022-11-16T08:00:24.998Z,99739.75
2022-11-16T08:03:01.761Z,99740.13
2022-11-16T08:05:30.407Z,99719.91
2022-11-16T08:07:58.882Z,99719.63
2022-11-16T08:10:28.212Z,99717.97
2022-11-16T08:12:57.413Z,99730.09
2022-11-16T08:15:27.516Z,99737.22
2022-11-16T08:17:58.482Z,99743.63
2022-11-16T08:20:29.153Z,99738.19
2022-11-16T08:23:01.332Z,99738.63
2022-11-16T08:25:34.161Z,99747.69
2022-11-16T08:28:03.223Z,99744.75
2022-11-16T08:30:34.362Z,99755.91
2022-11-16T08:33:02.873Z,99761.47
2022-11-16T08:35:31.904Z,99754.78
2022-11-16T08:38:00.219Z,99749.63
2022-11-16T08:40:30.533Z,99754.78
2022-11-16T08:42:58.913Z,99767.06
2022-11-16T08:45:28.912Z,99747.38
2022-11-16T08:48:03.923Z,99760.94
2022-11-16T08:51:09.948Z,99750.47
2022-11-16T08:53:25.185Z,99757.59
2022-11-16T08:55:53.872Z,99754.94
2022-11-16T08:58:22.654Z,99756.59
2022-11-16T09:00:53.183Z,99756.16
2022-11-16T09:03:21.451Z,99758.69
2022-11-16T09:05:50.852Z,99750.03
2022-11-16T09:08:19.174Z,99753.38
2022-11-16T09:10:47.752Z,99747.69
2022-11-16T09:13:16.106Z,99755.06
2022-11-16T09:15:45.302Z,99751.44
2022-11-16T09:18:14.242Z,99757.28
2022-11-16T09:20:45.732Z,99757.28
2022-11-16T09:23:14.012Z,99769.84
2022-11-16T09:25:45.955Z,99769.97
2022-11-16T09:28:21.423Z,99769.97
2022-11-16T09:30:51.279Z,99770.09
2022-11-16T09:33:19.645Z,99770.97
2022-11-16T09:35:48.343Z,99768.44
2022-11-16T09:38:24.181Z,99773.75
2022-11-16T09:41:15.362Z,99770.41
2022-11-16T09:43:56.324Z,99768.69
2022-11-16T09:46:41.112Z,99757.69
2022-11-16T09:49:23.083Z,99762.56
2022-11-16T09:51:55.732Z,99758.53
2022-11-16T09:54:26.723Z,99747.66
2022-11-16T09:57:01.671Z,99738.84
2022-11-16T09:59:48.352Z,99724.09
2022-11-16T10:02:33.002Z,99719.34
2022-11-16T10:05:37.453Z,99705.53
2022-11-16T10:08:25.804Z,99687.81
2022-11-16T10:11:19.562Z,99671.50
2022-11-16T10:14:04.986Z,99657.38
2022-11-16T10:17:13.073Z,99668.56
2022-11-16T10:20:14.126Z,99673.03
2022-11-16T10:23:06.792Z,99669.25
2022-11-16T10:25:46.423Z,99672.47
2022-11-16T10:28:27.735Z,99672.03
2022-11-16T10:31:32.334Z,99663.25
2022-11-16T10:34:00.602Z,99653.66
2022-11-16T10:36:30.882Z,99654.22
2022-11-16T10:38:59.274Z,99644.00
2022-11-16T10:41:40.282Z,99634.22
2022-11-16T10:44:41.643Z,99643.31
2022-11-16T10:47:23.087Z,99620.84
2022-11-16T10:49:57.842Z,99621.41
2022-11-16T10:52:26.532Z,99628.94
2022-11-16T10:54:54.792Z,99624.06
2022-11-16T10:57:25.134Z,99618.91
2022-11-16T10:59:59.393Z,99610.00
2022-11-16T11:02:35.803Z,99598.56
2022-11-16T11:05:22.812Z,99599.38
2022-11-16T11:08:03.523Z,99608.03
2022-11-16T11:10:39.354Z,99596.03
2022-11-16T11:13:10.976Z,99595.75
2022-11-16T11:15:43.270Z,99585.84
2022-11-16T11:18:23.667Z,99594.34
2022-11-16T11:21:05.933Z,99586.28
2022-11-16T11:23:53.682Z,99587.41
2022-11-16T11:26:40.531Z,99571.19
2022-11-16T11:29:32.356Z,99569.53
2022-11-16T11:32:24.389Z,99561.28
2022-11-16T11:34:54.616Z,99551.97
2022-11-16T11:37:34.173Z,99559.50
2022-11-16T11:40:22.903Z,99551.97
2022-11-16T11:42:57.838Z,99547.47
2022-11-16T11:45:33.703Z,99544.69
2022-11-16T11:48:07.466Z,99540.94
2022-11-16T11:50:50.761Z,99541.66
2022-11-16T11:53:52.982Z,99541.22
2022-11-16T11:56:22.765Z,99543.03
2022-11-16T11:58:51.925Z,99550.69
2022-11-16T12:01:48.045Z,99558.25
2022-11-16T12:04:31.031Z,99552.94
2022-11-16T12:06:59.435Z,99538.59
2022-11-16T12:09:48.935Z,99547.91
2022-11-16T12:12:51.592Z,99542.91
2022-11-16T12:15:44.782Z,99545.56
2022-11-16T12:18:40.849Z,99547.22
2022-11-16T12:21:22.495Z,99533.28
2022-11-16T12:24:11.812Z,99537.88
2022-11-16T12:27:16.601Z,99532.72
2022-11-16T12:30:22.371Z,99517.13
2022-11-16T12:33:43.660Z,99519.19
2022-11-16T12:36:41.002Z,99517.38
2022-11-16T12:39:31.923Z,99509.16
2022-11-16T12:42:17.211Z,99509.84
2022-11-16T12:45:12.924Z,99507.31
2022-11-16T12:47:51.562Z,99498.69
2022-11-16T12:50:59.431Z,99504.22
2022-11-16T12:54:01.161Z,99487.94
2022-11-16T12:56:45.920Z,99496.41
2022-11-16T12:59:28.552Z,99493.06
2022-11-16T13:02:51.173Z,99489.47
2022-11-16T13:05:51.660Z,99486.94
2022-11-16T13:08:50.208Z,99477.63
2022-11-16T13:11:28.433Z,99468.97
2022-11-16T13:14:01.231Z,99482.78
2022-11-16T13:16:30.321Z,99480.00
2022-11-16T13:18:59.422Z,99472.47
2022-11-16T13:21:57.219Z,99468.72
2022-11-16T13:25:00.575Z,99466.06
2022-11-16T13:27:31.752Z,99462.31
2022-11-16T13:30:22.610Z,99465.63
2022-11-16T13:33:30.730Z,99458.97
2022-11-16T13:35:59.037Z,99460.34
2022-11-16T13:38:52.969Z,99463.81
2022-11-16T13:41:29.572Z,99447.91
2022-11-16T13:43:58.475Z,99446.25
2022-11-16T13:46:57.854Z,99448.22
2022-11-16T13:49:57.804Z,99446.53
2022-11-16T13:53:41.221Z,99444.88
2022-11-16T13:55:44.464Z,99437.91
2022-11-16T13:58:21.290Z,99452.38
2022-11-16T14:01:15.757Z,99445.41
2022-11-16T14:03:45.633Z,99440.97
2022-11-16T14:06:19.951Z,99451.25
2022-11-16T14:08:56.072Z,99449.59
2022-11-16T14:11:38.972Z,99443.19
2022-11-16T14:14:33.931Z,99457.97
2022-11-16T14:17:03.722Z,99459.66
2022-11-16T14:19:55.385Z,99462.44
2022-11-16T14:22:56.430Z,99468.84
2022-11-16T14:25:36.651Z,99458.94
2022-11-16T14:28:24.663Z,99457.56
2022-11-16T14:31:23.170Z,99465.50
2022-11-16T14:33:53.870Z,99456.88
2022-11-16T14:36:54.641Z,99450.88
2022-11-16T14:39:38.368Z,99445.16
2022-11-16T14:46:29.223Z,99436.34
2022-11-16T14:48:59.720Z,99430.94
2022-11-16T14:51:38.119Z,99433.00
2022-11-16T14:54:17.791Z,99430.63
2022-11-16T14:57:00.167Z,99440.97
2022-11-16T14:59:30.450Z,99431.47
2022-11-16T15:02:34.800Z,99446.69
2022-11-16T15:05:04.541Z,99440.56
2022-11-16T15:07:35.630Z,99428.56
2022-11-16T15:10:05.314Z,99431.91
2022-11-16T15:12:43.085Z,99436.38
2022-11-16T15:15:12.197Z,99441.81
2022-11-16T15:17:44.445Z,99444.75
2022-11-16T15:20:23.424Z,99431.50
2022-11-16T15:22:54.692Z,99428.16
2022-11-16T15:25:59.530Z,99424.69
2022-11-16T15:28:31.870Z,99424.81
2022-11-16T15:31:05.069Z,99431.50
2022-11-16T15:33:40.977Z,99422.47
2022-11-16T15:36:39.100Z,99424.53
2022-11-16T15:39:24.608Z,99429.00
2022-11-16T15:41:56.435Z,99432.34
2022-11-16T15:44:29.283Z,99435.53
2022-11-16T15:46:57.642Z,99433.97
2022-11-16T15:49:37.697Z,99419.78
2022-11-16T15:52:06.033Z,99415.00
2022-11-16T15:54:54.933Z,99432.25
2022-11-16T15:57:24.010Z,99446.59
2022-11-16T16:00:00.346Z,99449.59
2022-11-16T16:02:29.432Z,99454.47
2022-11-16T16:04:58.114Z,99442.75
2022-11-16T16:07:55.652Z,99443.94
2022-11-16T16:10:25.823Z,99440.16
2022-11-16T16:12:59.649Z,99439.44
2022-11-16T16:15:36.975Z,99441.47
2022-11-16T16:18:12.526Z,99433.75
2022-11-16T16:20:41.229Z,99445.72
2022-11-16T16:23:13.293Z,99453.13
2022-11-16T16:25:46.007Z,99449.78
2022-11-16T16:28:18.551Z,99451.31
2022-11-16T16:30:47.183Z,99462.66
2022-11-16T16:33:20.310Z,99469.00
2022-11-16T16:35:49.936Z,99459.81
2022-11-16T16:38:18.266Z,99471.09
2022-11-16T16:40:46.764Z,99472.94
2022-11-16T16:43:15.046Z,99464.66
2022-11-16T16:45:44.062Z,99468.44
2022-11-16T16:48:13.514Z,99476.56
2022-11-16T16:50:42.209Z,99476.16
2022-11-16T16:53:14.234Z,99484.81
2022-11-16T16:55:43.290Z,99480.50
2022-11-16T16:58:12.880Z,99474.97
2022-11-16T17:00:41.867Z,99478.44
2022-11-16T17:03:10.360Z,99480.41
2022-11-16T17:05:40.214Z,99480.84
2022-11-16T17:08:08.571Z,99476.69
2022-11-16T17:10:39.191Z,99466.00
2022-11-16T17:13:07.409Z,99472.38
2022-11-16T17:15:35.991Z,99470.69
2022-11-16T17:18:04.331Z,99474.63
2022-11-16T17:20:33.381Z,99471.97
2022-11-16T17:23:02.220Z,99476.28
2022-11-16T17:25:33.341Z,99478.56
2022-11-16T17:28:01.651Z,99491.00
2022-11-16T17:30:30.292Z,99481.50
2022-11-16T17:32:58.673Z,99485.16
2022-11-16T17:35:27.250Z,99486.97
2022-11-16T17:37:55.604Z,99490.75
2022-11-16T17:40:25.363Z,99489.09
2022-11-16T17:42:53.680Z,99496.19
2022-11-16T17:45:22.401Z,99499.41
2022-11-16T17:47:50.672Z,99500.75
2022-11-16T17:50:20.506Z,99498.06
2022-11-16T17:52:48.751Z,99491.31
2022-11-16T17:55:17.452Z,99499.38
2022-11-16T17:57:45.712Z,99510.78
2022-11-16T18:00:18.076Z,99512.69
2022-11-16T18:02:46.831Z,99512.38
2022-11-16T18:05:16.478Z,99506.31
2022-11-16T18:07:44.761Z,99507.31
2022-11-16T18:10:18.933Z,99501.47
2022-11-16T18:12:47.562Z,99501.31
2022-11-16T18:15:28.614Z,99505.75
2022-11-16T18:17:57.541Z,99505.91
2022-11-16T18:20:27.825Z,99507.59
2022-11-16T18:22:57.521Z,99509.41
2022-11-16T18:25:27.224Z,99509.56
2022-11-16T18:27:55.839Z,99513.19
2022-11-16T18:30:24.476Z,99513.19
2022-11-16T18:32:52.938Z,99518.34
2022-11-16T18:35:23.071Z,99518.50
2022-11-16T18:37:53.167Z,99506.22
2022-11-16T18:40:22.061Z,99512.38
2022-11-16T18:42:50.616Z,99517.69
2022-11-16T18:45:20.271Z,99508.34
2022-11-16T18:47:48.744Z,99517.13
2022-11-16T18:50:21.429Z,99516.59
2022-11-16T18:52:52.687Z,99515.09
2022-11-16T18:55:21.577Z,99514.53
2022-11-16T18:57:50.164Z,99515.53
2022-11-16T19:00:20.509Z,99525.63
2022-11-16T19:02:49.159Z,99528.28
2022-11-16T19:05:18.142Z,99526.75
2022-11-16T19:07:46.707Z,99527.06
2022-11-16T19:10:16.877Z,99528.56
2022-11-16T19:12:45.548Z,99531.22
2022-11-16T19:15:14.407Z,99529.56
2022-11-16T19:17:59.627Z,99532.91
2022-11-16T19:20:33.119Z,99541.16
2022-11-16T19:23:02.761Z,99544.81
2022-11-16T19:25:31.866Z,99545.78
2022-11-16T19:28:00.457Z,99559.22
2022-11-16T19:30:29.458Z,99553.06
2022-11-16T19:32:59.457Z,99551.69
2022-11-16T19:35:29.149Z,99540.38
2022-11-16T19:37:58.377Z,99548.34
2022-11-16T19:40:27.207Z,99540.97
2022-11-16T19:42:55.666Z,99531.63
2022-11-16T19:45:24.500Z,99527.97
2022-11-16T19:47:53.059Z,99538.47
2022-11-16T19:50:23.923Z,99541.09
2022-11-16T19:52:52.547Z,99543.91
2022-11-16T19:55:22.285Z,99544.91
2022-11-16T19:57:50.897Z,99548.69
2022-11-16T20:00:20.055Z,99550.34
2022-11-16T20:02:48.655Z,99555.66
2022-11-16T20:05:17.527Z,99556.66
2022-11-16T20:07:46.119Z,99559.44
2022-11-16T20:10:15.409Z,99556.09
2022-11-16T20:12:44.013Z,99549.13
2022-11-16T20:15:13.508Z,99543.44
2022-11-16T20:17:42.132Z,99544.81
2022-11-16T20:20:11.561Z,99530.84
2022-11-16T20:22:40.235Z,99519.38
2022-11-16T20:25:10.106Z,99521.22
2022-11-16T20:27:40.861Z,99503.78
2022-11-16T20:30:11.536Z,99507.25
2022-11-16T20:32:40.096Z,99501.28
2022-11-16T20:35:18.777Z,99497.63
2022-11-16T20:37:48.755Z,99495.28
2022-11-16T20:40:19.413Z,99499.59
2022-11-16T20:42:48.136Z,99499.59
2022-11-16T20:45:17.001Z,99503.09
2022-11-16T20:47:45.505Z,99496.25
2022-11-16T20:50:14.546Z,99498.06
2022-11-16T20:52:45.177Z,99496.25
2022-11-16T20:55:17.485Z,99502.56
2022-11-16T20:57:46.106Z,99492.22
2022-11-16T21:00:16.405Z,99496.56
2022-11-16T21:02:45.115Z,99501.88
2022-11-16T21:05:14.138Z,99508.00
2022-11-16T21:07:44.254Z,99514.28
2022-11-16T21:10:19.985Z,99521.41
2022-11-16T21:13:07.168Z,99522.25
2022-11-16T21:15:36.066Z,99528.66
2022-11-16T21:18:04.965Z,99509.13
2022-11-16T21:20:35.981Z,99516.22
2022-11-16T21:23:04.483Z,99521.72
2022-11-16T21:25:34.843Z,99523.50
2022-11-16T21:28:04.404Z,99517.81
2022-11-16T21:30:33.252Z,99529.94
2022-11-16T21:33:01.853Z,99530.94
2022-11-16T21:35:30.918Z,99533.72
2022-11-16T21:37:59.453Z,99542.50
2022-11-16T21:40:30.111Z,99533.41
2022-11-16T21:42:58.631Z,99545.16
2022-11-16T21:45:27.495Z,99552.84
2022-11-16T21:47:56.146Z,99552.25
2022-11-16T21:50:31.525Z,99544.53
2022-11-16T21:53:01.510Z,99546.09
2022-11-16T21:55:30.625Z,99548.94
2022-11-16T21:57:59.345Z,99563.13
2022-11-16T22:00:28.574Z,99561.88
2022-11-16T22:02:57.307Z,99567.41
2022-11-16T22:05:55.969Z,99562.66
2022-11-16T22:08:24.654Z,99577.16
2022-11-16T22:10:53.658Z,99561.50
2022-11-16T22:13:22.276Z,99579.34
2022-11-16T22:15:52.700Z,99568.88
2022-11-16T22:18:21.236Z,99569.19
2022-11-16T22:20:50.273Z,99562.19
2022-11-16T22:23:22.956Z,99552.56
2022-11-16T22:25:53.288Z,99537.47
2022-11-16T22:28:22.259Z,99550.06
2022-11-16T22:30:58.653Z,99544.91
2022-11-16T22:33:27.345Z,99540.28
2022-11-16T22:35:56.512Z,99543.53
2022-11-16T22:38:25.063Z,99549.97
2022-11-16T22:40:57.162Z,99550.94
2022-11-16T22:43:28.415Z,99547.75
2022-11-16T22:46:04.536Z,99541.75
2022-11-16T22:48:38.304Z,99523.91
2022-11-16T22:51:12.726Z,99512.06
2022-11-16T22:53:41.344Z,99511.78
2022-11-16T22:56:10.433Z,99505.94
2022-11-16T22:58:39.306Z,99522.41
2022-11-16T23:01:09.700Z,99519.06
2022-11-16T23:03:38.812Z,99527.97
2022-11-16T23:06:08.286Z,99519.34
2022-11-16T23:08:37.186Z,99518.50
2022-11-16T23:11:38.047Z,99502.06
2022-11-16T23:14:27.636Z,99499.53
2022-11-16T23:16:56.545Z,99495.22
2022-11-16T23:19:44.207Z,99493.72
2022-11-16T23:22:34.885Z,99485.06
2022-11-16T23:25:23.036Z,99485.06
2022-11-16T23:28:07.530Z,99475.88
2022-11-16T23:30:36.405Z,99474.06
2022-11-16T23:33:05.234Z,99475.88
2022-11-16T23:35:33.915Z,99471.41
2022-11-16T23:38:06.934Z,99471.69
2022-11-16T23:40:38.828Z,99476.16
2022-11-16T23:43:28.916Z,99489.56
2022-11-16T23:45:57.922Z,99489.56
2022-11-16T23:48:26.628Z,99484.56
2022-11-16T23:50:55.087Z,99487.22
2022-11-16T23:53:23.836Z,99491.84
2022-11-16T23:55:53.054Z,99511.38
2022-11-16T23:58:21.837Z,99513.34
